Time,TemperatureF,DewpointF,PressureIn,WindDirection,WindDirectionDegrees,WindSpeedMPH,WindSpeedGustMPH,Humidity,HourlyPrecipIn,Conditions,Clouds,dailyrainin,SoftwareType,DateUTC
2013-05-11 00:03:00,64.0,55.0,29.89,SW,228,0.0,1.0,73,0.00,,,0.01,,2013-05-11 04:03:00,
2013-05-11 00:12:00,64.0,55.0,29.89,SW,228,0.0,1.0,73,0.00,,,0.01,,2013-05-11 04:12:00,
2013-05-11 00:23:00,63.0,54.0,29.89,WSW,252,0.0,5.0,73,0.00,,,0.01,,2013-05-11 04:23:00,
2013-05-11 00:33:00,63.0,55.0,29.89,WSW,246,0.0,4.0,75,0.00,,,0.01,,2013-05-11 04:33:00,
2013-05-11 00:43:00,62.0,54.0,29.89,WSW,246,0.0,0.0,76,0.00,,,0.01,,2013-05-11 04:43:00,
2013-05-11 00:52:00,62.0,54.0,29.89,WSW,246,0.0,0.0,76,0.00,,,0.01,,2013-05-11 04:52:00,
2013-05-11 01:02:00,62.0,55.0,29.88,WSW,246,0.0,0.0,77,0.00,,,0.01,,2013-05-11 05:02:00,
2013-05-11 01:12:00,62.0,55.0,29.88,WSW,246,0.0,0.0,77,0.00,,,0.01,,2013-05-11 05:12:00,
2013-05-11 01:22:00,62.0,55.0,29.88,West,268,0.0,3.0,77,0.00,,,0.01,,2013-05-11 05:22:00,
2013-05-11 01:32:00,62.0,55.0,29.88,West,260,0.0,0.0,78,0.00,,,0.01,,2013-05-11 05:32:00,
2013-05-11 01:42:00,61.0,54.0,29.87,West,259,0.0,1.0,79,0.00,,,0.01,,2013-05-11 05:42:00,
2013-05-11 01:52:00,61.0,54.0,29.87,West,259,0.0,1.0,79,0.00,,,0.01,,2013-05-11 05:52:00,
2013-05-11 02:02:00,61.0,54.0,29.86,WSW,237,0.0,1.0,78,0.00,,,0.01,,2013-05-11 06:02:00,
2013-05-11 02:12:00,61.0,54.0,29.86,WSW,237,0.0,1.0,78,0.00,,,0.01,,2013-05-11 06:12:00,
2013-05-11 02:21:00,61.0,54.0,29.85,WSW,245,0.0,4.0,78,0.00,,,0.01,,2013-05-11 06:21:00,
2013-05-11 02:32:00,61.0,54.0,29.85,WSW,245,0.0,0.0,79,0.00,,,0.01,,2013-05-11 06:32:00,
2013-05-11 02:42:00,60.0,54.0,29.85,WSW,245,0.0,0.0,80,0.00,,,0.01,,2013-05-11 06:42:00,
2013-05-11 02:52:00,60.0,54.0,29.85,WSW,245,0.0,0.0,80,0.00,,,0.01,,2013-05-11 06:52:00,
2013-05-11 03:02:00,60.0,54.0,29.84,WSW,245,0.0,0.0,81,0.00,,,0.01,,2013-05-11 07:02:00,
2013-05-11 03:12:00,60.0,54.0,29.84,WSW,245,0.0,0.0,81,0.00,,,0.01,,2013-05-11 07:12:00,
2013-05-11 03:21:00,59.0,54.0,29.83,WSW,245,0.0,0.0,84,0.00,,,0.01,,2013-05-11 07:21:00,
2013-05-11 03:32:00,59.0,54.0,29.83,WSW,245,0.0,0.0,84,0.00,,,0.01,,2013-05-11 07:32:00,
2013-05-11 03:42:00,59.0,54.0,29.83,WSW,245,0.0,0.0,84,0.00,,,0.01,,2013-05-11 07:42:00,
2013-05-11 03:52:00,59.0,54.0,29.83,WSW,245,0.0,0.0,84,0.00,,,0.01,,2013-05-11 07:52:00,
2013-05-11 04:02:00,59.0,55.0,29.81,WSW,245,0.0,0.0,86,0.00,,,0.01,,2013-05-11 08:02:00,
2013-05-11 04:12:00,59.0,55.0,29.81,WSW,245,0.0,0.0,86,0.00,,,0.01,,2013-05-11 08:12:00,
2013-05-11 04:21:00,58.0,54.0,29.80,WSW,245,0.0,0.0,86,0.00,,,0.01,,2013-05-11 08:21:00,
2013-05-11 04:32:00,58.0,54.0,29.80,WSW,245,0.0,0.0,87,0.00,,,0.01,,2013-05-11 08:32:00,
2013-05-11 04:42:00,58.0,54.0,29.80,WSW,245,0.0,0.0,88,0.00,,,0.01,,2013-05-11 08:42:00,
2013-05-11 04:52:00,58.0,54.0,29.80,WSW,245,0.0,0.0,88,0.00,,,0.01,,2013-05-11 08:52:00,
2013-05-11 05:01:00,58.0,55.0,29.80,WSW,245,0.0,0.0,90,0.00,,,0.01,,2013-05-11 09:01:00,
2013-05-11 05:11:00,58.0,55.0,29.80,WSW,245,0.0,0.0,90,0.00,,,0.01,,2013-05-11 09:11:00,
2013-05-11 05:21:00,58.0,55.0,29.81,WSW,245,0.0,0.0,91,0.00,,,0.01,,2013-05-11 09:21:00,
2013-05-11 05:32:00,58.0,55.0,29.80,South,190,0.0,1.0,91,0.00,,,0.01,,2013-05-11 09:32:00,
2013-05-11 05:42:00,58.0,56.0,29.81,West,264,0.0,2.0,92,0.01,,,0.02,,2013-05-11 09:42:00,
2013-05-11 05:53:00,58.0,56.0,29.81,West,264,0.0,2.0,92,0.01,,,0.02,,2013-05-11 09:53:00,
2013-05-11 06:03:00,57.0,56.0,29.79,West,264,0.0,0.0,95,0.03,,,0.04,,2013-05-11 10:03:00,
2013-05-11 06:12:00,57.0,56.0,29.79,West,264,0.0,0.0,95,0.03,,,0.04,,2013-05-11 10:12:00,
2013-05-11 06:22:00,57.0,56.0,29.79,WSW,256,0.0,1.0,97,0.03,,,0.04,,2013-05-11 10:22:00,
2013-05-11 06:33:00,57.0,57.0,29.79,WNW,283,0.0,2.0,99,0.03,,,0.04,,2013-05-11 10:33:00,
2013-05-11 06:42:00,57.0,57.0,29.79,WNW,283,0.0,1.0,100,0.02,,,0.03,,2013-05-11 10:42:00,
2013-05-11 06:52:00,57.0,57.0,29.79,WNW,283,0.0,1.0,100,0.02,,,0.03,,2013-05-11 10:52:00,
2013-05-11 07:02:00,57.0,57.0,29.80,SW,216,0.0,3.0,100,0.00,,,0.03,,2013-05-11 11:02:00,
2013-05-11 07:12:00,57.0,57.0,29.80,SW,216,0.0,3.0,100,0.00,,,0.03,,2013-05-11 11:12:00,
2013-05-11 07:22:00,57.0,57.0,29.80,WSW,248,0.0,2.0,100,0.00,,,0.03,,2013-05-11 11:22:00,
2013-05-11 07:32:00,57.0,57.0,29.80,WNW,285,0.0,3.0,100,0.00,,,0.03,,2013-05-11 11:32:00,
2013-05-11 07:42:00,57.0,57.0,29.80,West,265,0.0,4.0,100,0.00,,,0.03,,2013-05-11 11:42:00,
2013-05-11 07:52:00,57.0,57.0,29.80,West,265,0.0,4.0,100,0.00,,,0.03,,2013-05-11 11:52:00,
2013-05-11 08:01:00,58.0,58.0,29.79,West,264,0.0,2.0,100,0.00,,,0.03,,2013-05-11 12:01:00,
2013-05-11 08:11:00,58.0,58.0,29.79,West,264,0.0,2.0,100,0.00,,,0.03,,2013-05-11 12:11:00,
2013-05-11 08:22:00,58.0,58.0,29.79,West,263,0.0,1.0,100,0.00,,,0.03,,2013-05-11 12:22:00,
2013-05-11 08:32:00,58.0,58.0,29.79,SW,229,2.0,4.0,100,0.00,,,0.03,,2013-05-11 12:32:00,
2013-05-11 08:42:00,59.0,59.0,29.78,WNW,291,0.0,2.0,100,0.00,,,0.03,,2013-05-11 12:42:00,
2013-05-11 08:52:00,59.0,59.0,29.78,WNW,291,0.0,2.0,100,0.00,,,0.03,,2013-05-11 12:52:00,
2013-05-11 09:02:00,59.0,59.0,29.78,West,281,0.0,6.0,100,0.00,,,0.03,,2013-05-11 13:02:00,
2013-05-11 09:11:00,59.0,59.0,29.78,West,281,0.0,6.0,100,0.00,,,0.03,,2013-05-11 13:11:00,
2013-05-11 09:21:00,60.0,60.0,29.78,WSW,250,0.0,3.0,100,0.00,,,0.03,,2013-05-11 13:21:00,
2013-05-11 09:32:00,60.0,60.0,29.77,WSW,237,2.0,4.0,100,0.00,,,0.03,,2013-05-11 13:32:00,
2013-05-11 09:42:00,61.0,61.0,29.77,SW,224,1.0,4.0,100,0.00,,,0.03,,2013-05-11 13:42:00,
2013-05-11 09:52:00,61.0,61.0,29.77,SW,224,1.0,4.0,100,0.00,,,0.03,,2013-05-11 13:52:00,
2013-05-11 10:02:00,62.0,62.0,29.77,SSW,204,0.0,4.0,99,0.00,,,0.03,,2013-05-11 14:02:00,
2013-05-11 10:11:00,62.0,62.0,29.77,SSW,204,0.0,4.0,99,0.00,,,0.03,,2013-05-11 14:11:00,
2013-05-11 10:21:00,63.0,62.0,29.77,WSW,258,0.0,4.0,96,0.00,,,0.03,,2013-05-11 14:21:00,
2013-05-11 10:32:00,64.0,61.0,29.77,West,281,3.0,7.0,89,0.00,,,0.03,,2013-05-11 14:32:00,
2013-05-11 10:42:00,64.0,60.0,29.77,NW,310,5.0,11.0,87,0.00,,,0.03,,2013-05-11 14:42:00,
2013-05-11 10:51:00,64.0,60.0,29.77,NW,310,5.0,11.0,87,0.00,,,0.03,,2013-05-11 14:51:00,
2013-05-11 11:01:00,65.0,60.0,29.77,WSW,255,4.0,6.0,84,0.00,,,0.03,,2013-05-11 15:01:00,
2013-05-11 11:11:00,66.0,60.0,29.77,WNW,302,2.0,5.0,82,0.00,,,0.03,,2013-05-11 15:11:00,
2013-05-11 11:21:00,66.0,60.0,29.77,WNW,302,2.0,5.0,82,0.00,,,0.03,,2013-05-11 15:21:00,
2013-05-11 11:32:00,68.0,62.0,29.76,WNW,295,2.0,7.0,80,0.00,,,0.03,,2013-05-11 15:32:00,
2013-05-11 11:43:00,68.0,61.0,29.76,West,264,3.0,7.0,77,0.00,,,0.03,,2013-05-11 15:43:00,
2013-05-11 11:53:00,68.0,61.0,29.76,West,264,3.0,7.0,77,0.00,,,0.03,,2013-05-11 15:53:00,
2013-05-11 12:03:00,69.0,61.0,29.76,WNW,300,4.0,9.0,75,0.00,,,0.03,,2013-05-11 16:03:00,
2013-05-11 12:12:00,69.0,61.0,29.76,WNW,300,4.0,9.0,75,0.00,,,0.03,,2013-05-11 16:12:00,
2013-05-11 12:23:00,69.0,61.0,29.75,NNW,342,5.0,12.0,75,0.00,,,0.03,,2013-05-11 16:23:00,
2013-05-11 12:33:00,68.0,60.0,29.75,WNW,301,3.0,8.0,76,0.00,,,0.03,,2013-05-11 16:33:00,
2013-05-11 12:42:00,68.0,61.0,29.74,WNW,287,2.0,5.0,78,0.00,,,0.03,,2013-05-11 16:42:00,
2013-05-11 12:53:00,68.0,61.0,29.74,WNW,287,2.0,5.0,78,0.00,,,0.03,,2013-05-11 16:53:00,
2013-05-11 13:02:00,68.0,61.0,29.74,West,270,4.0,5.0,78,0.00,,,0.03,,2013-05-11 17:02:00,
2013-05-11 13:12:00,68.0,61.0,29.74,West,270,4.0,5.0,78,0.00,,,0.03,,2013-05-11 17:12:00,
2013-05-11 13:22:00,68.0,61.0,29.74,WNW,298,1.0,4.0,78,0.00,,,0.03,,2013-05-11 17:22:00,
2013-05-11 13:32:00,68.0,61.0,29.74,WSW,245,9.0,11.0,77,0.00,,,0.03,,2013-05-11 17:32:00,
2013-05-11 13:42:00,68.0,61.0,29.74,West,281,4.0,10.0,79,0.00,,,0.03,,2013-05-11 17:42:00,
2013-05-11 13:52:00,68.0,61.0,29.74,West,281,4.0,10.0,79,0.00,,,0.03,,2013-05-11 17:52:00,
2013-05-11 14:01:00,67.0,61.0,29.74,WSW,257,2.0,11.0,80,0.00,,,0.03,,2013-05-11 18:01:00,
2013-05-11 14:12:00,67.0,61.0,29.74,WSW,257,2.0,11.0,80,0.00,,,0.03,,2013-05-11 18:12:00,
2013-05-11 14:21:00,66.0,60.0,29.74,South,183,5.0,12.0,81,0.00,,,0.03,,2013-05-11 18:21:00,
2013-05-11 14:32:00,66.0,60.0,29.73,NNW,334,9.0,16.0,81,0.00,,,0.03,,2013-05-11 18:32:00,
2013-05-11 14:42:00,65.0,60.0,29.73,NW,316,2.0,12.0,83,0.00,,,0.03,,2013-05-11 18:42:00,
2013-05-11 14:52:00,65.0,60.0,29.73,NW,316,2.0,12.0,83,0.00,,,0.03,,2013-05-11 18:52:00,
2013-05-11 15:02:00,65.0,60.0,29.73,WNW,302,4.0,7.0,84,0.00,,,0.03,,2013-05-11 19:02:00,
2013-05-11 15:11:00,65.0,60.0,29.73,WNW,302,4.0,7.0,84,0.00,,,0.03,,2013-05-11 19:11:00,
2013-05-11 15:21:00,65.0,59.0,29.72,WSW,247,1.0,11.0,82,0.00,,,0.03,,2013-05-11 19:21:00,
2013-05-11 15:32:00,65.0,59.0,29.72,NNE,22,3.0,19.0,82,0.00,,,0.03,,2013-05-11 19:32:00,
2013-05-11 15:42:00,64.0,58.0,29.72,SW,214,2.0,11.0,82,0.00,,,0.03,,2013-05-11 19:42:00,
2013-05-11 15:53:00,64.0,58.0,29.72,SW,214,2.0,11.0,82,0.00,,,0.03,,2013-05-11 19:53:00,
2013-05-11 16:02:00,64.0,59.0,29.72,SW,220,2.0,6.0,84,0.00,,,0.03,,2013-05-11 20:02:00,
2013-05-11 16:12:00,64.0,59.0,29.72,SW,220,2.0,6.0,84,0.00,,,0.03,,2013-05-11 20:12:00,
2013-05-11 16:22:00,64.0,60.0,29.71,West,262,3.0,7.0,86,0.00,,,0.03,,2013-05-11 20:22:00,
2013-05-11 16:32:00,64.0,59.0,29.71,NW,319,3.0,11.0,85,0.00,,,0.03,,2013-05-11 20:32:00,
2013-05-11 16:42:00,64.0,59.0,29.70,WSW,250,4.0,6.0,85,0.00,,,0.03,,2013-05-11 20:42:00,
2013-05-11 16:52:00,64.0,59.0,29.70,WSW,250,4.0,6.0,85,0.00,,,0.03,,2013-05-11 20:52:00,
2013-05-11 17:02:00,64.0,61.0,29.70,SW,231,0.0,4.0,89,0.01,,,0.04,,2013-05-11 21:02:00,
2013-05-11 17:11:00,64.0,61.0,29.70,SW,231,0.0,4.0,89,0.01,,,0.04,,2013-05-11 21:11:00,
2013-05-11 17:22:00,63.0,60.0,29.71,WSW,252,0.0,4.0,91,0.01,,,0.04,,2013-05-11 21:22:00,
2013-05-11 17:33:00,64.0,61.0,29.71,WNW,289,3.0,9.0,91,0.01,,,0.04,,2013-05-11 21:33:00,
2013-05-11 17:43:00,64.0,61.0,29.71,WNW,289,3.0,9.0,91,0.01,,,0.04,,2013-05-11 21:43:00,
2013-05-11 17:53:00,64.0,61.0,29.71,SW,228,1.0,6.0,90,0.01,,,0.04,,2013-05-11 21:53:00,
2013-05-11 18:02:00,64.0,61.0,29.71,WNW,300,0.0,4.0,89,0.00,,,0.04,,2013-05-11 22:02:00,
2013-05-11 18:13:00,64.0,61.0,29.71,WNW,300,0.0,4.0,89,0.00,,,0.04,,2013-05-11 22:13:00,
2013-05-11 18:23:00,64.0,61.0,29.71,WSW,244,0.0,3.0,89,0.00,,,0.04,,2013-05-11 22:23:00,
2013-05-11 18:33:00,64.0,61.0,29.71,NW,317,2.0,5.0,89,0.00,,,0.04,,2013-05-11 22:33:00,
2013-05-11 18:42:00,64.0,61.0,29.71,NW,317,2.0,5.0,89,0.00,,,0.04,,2013-05-11 22:42:00,
2013-05-11 18:52:00,64.0,61.0,29.71,WSW,243,2.0,5.0,90,0.01,,,0.05,,2013-05-11 22:52:00,
2013-05-11 19:02:00,63.0,62.0,29.72,West,274,0.0,3.0,95,0.03,,,0.07,,2013-05-11 23:02:00,
2013-05-11 19:12:00,63.0,62.0,29.72,West,274,0.0,3.0,95,0.03,,,0.07,,2013-05-11 23:12:00,
2013-05-11 19:22:00,62.0,61.0,29.71,WNW,284,0.0,4.0,97,0.05,,,0.09,,2013-05-11 23:22:00,
2013-05-11 19:32:00,62.0,61.0,29.71,NW,324,1.0,6.0,98,0.05,,,0.09,,2013-05-11 23:32:00,
2013-05-11 19:42:00,61.0,61.0,29.71,West,267,0.0,5.0,99,0.04,,,0.09,,2013-05-11 23:42:00,
2013-05-11 19:52:00,61.0,61.0,29.71,West,267,0.0,5.0,99,0.04,,,0.09,,2013-05-11 23:52:00,
2013-05-11 20:01:00,61.0,61.0,29.71,WNW,288,0.0,3.0,100,0.02,,,0.09,,2013-05-12 00:01:00,
2013-05-11 20:12:00,61.0,61.0,29.71,WNW,288,0.0,3.0,100,0.02,,,0.09,,2013-05-12 00:12:00,
2013-05-11 20:21:00,61.0,61.0,29.70,West,267,0.0,4.0,100,0.00,,,0.09,,2013-05-12 00:21:00,
2013-05-11 20:32:00,61.0,61.0,29.69,West,278,0.0,2.0,100,0.00,,,0.09,,2013-05-12 00:32:00,
2013-05-11 20:42:00,61.0,61.0,29.69,West,278,0.0,1.0,100,0.00,,,0.09,,2013-05-12 00:42:00,
2013-05-11 20:52:00,61.0,61.0,29.69,West,278,0.0,1.0,100,0.00,,,0.09,,2013-05-12 00:52:00,
2013-05-11 21:01:00,61.0,61.0,29.71,West,278,0.0,3.0,100,0.00,,,0.09,,2013-05-12 01:01:00,
2013-05-11 21:11:00,61.0,61.0,29.71,West,278,0.0,3.0,100,0.00,,,0.09,,2013-05-12 01:11:00,
2013-05-11 21:21:00,61.0,61.0,29.71,West,278,0.0,0.0,100,0.00,,,0.09,,2013-05-12 01:21:00,
2013-05-11 21:32:00,61.0,61.0,29.70,South,186,0.0,2.0,100,0.00,,,0.09,,2013-05-12 01:32:00,
2013-05-11 21:42:00,61.0,61.0,29.69,South,186,0.0,1.0,100,0.00,,,0.09,,2013-05-12 01:42:00,
2013-05-11 21:52:00,61.0,61.0,29.69,South,186,0.0,1.0,100,0.00,,,0.09,,2013-05-12 01:52:00,
2013-05-11 22:01:00,61.0,61.0,29.69,SW,235,0.0,1.0,100,0.00,,,0.09,,2013-05-12 02:01:00,
2013-05-11 22:11:00,61.0,61.0,29.69,SW,235,0.0,1.0,100,0.00,,,0.09,,2013-05-12 02:11:00,
2013-05-11 22:22:00,61.0,61.0,29.69,WNW,302,0.0,3.0,100,0.00,,,0.09,,2013-05-12 02:22:00,
2013-05-11 22:32:00,61.0,61.0,29.69,WSW,248,0.0,2.0,100,0.00,,,0.09,,2013-05-12 02:32:00,
2013-05-11 22:42:00,61.0,61.0,29.69,West,274,0.0,1.0,100,0.00,,,0.09,,2013-05-12 02:42:00,
2013-05-11 22:52:00,61.0,61.0,29.69,West,274,0.0,1.0,100,0.00,,,0.09,,2013-05-12 02:52:00,
2013-05-11 23:01:00,60.0,60.0,29.68,West,274,0.0,0.0,100,0.00,,,0.09,,2013-05-12 03:01:00,
2013-05-11 23:11:00,60.0,60.0,29.69,West,274,0.0,1.0,100,0.00,,,0.09,,2013-05-12 03:11:00,
2013-05-11 23:22:00,60.0,60.0,29.69,West,274,0.0,1.0,100,0.00,,,0.09,,2013-05-12 03:22:00,
2013-05-11 23:33:00,60.0,60.0,29.69,West,274,0.0,2.0,100,0.00,,,0.09,,2013-05-12 03:33:00,
2013-05-11 23:43:00,60.0,60.0,29.69,West,274,0.0,2.0,100,0.00,,,0.09,,2013-05-12 03:43:00,
2013-05-11 23:53:00,60.0,60.0,29.67,West,274,0.0,0.0,100,0.00,,,0.09,,2013-05-12 03:53:00,